createdAt,value
2019-03-16T00:02:12.710Z,3.00
2019-03-16T00:04:41.171Z,2.70
2019-03-16T00:07:09.662Z,2.85
2019-03-16T00:09:38.071Z,2.62
2019-03-16T00:12:06.531Z,2.58
2019-03-16T00:14:34.947Z,2.37
2019-03-16T00:17:03.406Z,3.00
2019-03-16T00:19:31.817Z,3.00
2019-03-16T00:22:00.264Z,3.10
2019-03-16T00:24:28.680Z,2.72
2019-03-16T00:26:57.117Z,3.50
2019-03-16T00:29:25.564Z,3.17
2019-03-16T00:31:54.039Z,3.22
2019-03-16T00:34:22.490Z,2.72
2019-03-16T00:36:50.912Z,2.87
2019-03-16T00:39:19.426Z,3.65
2019-03-16T00:41:47.862Z,2.62
2019-03-16T00:44:16.494Z,2.75
2019-03-16T00:46:44.907Z,3.37
2019-03-16T00:49:13.331Z,3.17
2019-03-16T00:51:41.784Z,2.87
2019-03-16T00:54:10.235Z,3.02
2019-03-16T00:56:38.663Z,3.62
2019-03-16T00:59:07.474Z,2.80
2019-03-16T01:01:37.470Z,3.30
2019-03-16T01:04:06.082Z,3.10
2019-03-16T01:06:34.537Z,3.05
2019-03-16T01:09:02.963Z,3.47
2019-03-16T01:11:31.439Z,3.15
2019-03-16T01:13:59.866Z,3.33
2019-03-16T01:16:28.311Z,2.85
2019-03-16T01:18:56.718Z,3.22
2019-03-16T01:21:25.155Z,2.42
2019-03-16T01:23:53.606Z,2.55
2019-03-16T01:26:22.026Z,2.30
2019-03-16T01:28:50.469Z,2.35
2019-03-16T01:31:18.948Z,2.17
2019-03-16T01:33:47.404Z,2.35
2019-03-16T01:36:15.910Z,2.50
2019-03-16T01:38:44.454Z,2.83
2019-03-16T01:41:12.903Z,2.20
2019-03-16T01:43:41.331Z,2.55
2019-03-16T01:46:09.763Z,2.45
2019-03-16T01:48:38.208Z,2.35
2019-03-16T01:51:06.667Z,2.52
2019-03-16T01:53:35.146Z,2.50
2019-03-16T01:56:03.581Z,2.45
2019-03-16T01:58:31.998Z,2.62
2019-03-16T02:01:00.425Z,2.40
2019-03-16T02:03:28.858Z,2.70
2019-03-16T02:05:57.289Z,2.40
2019-03-16T02:08:25.693Z,2.50
2019-03-16T02:10:54.410Z,2.70
2019-03-16T02:13:22.960Z,2.12
2019-03-16T02:15:51.383Z,2.20
2019-03-16T02:18:19.830Z,2.60
2019-03-16T02:20:48.255Z,2.47
2019-03-16T02:23:16.705Z,2.72
2019-03-16T02:25:45.122Z,2.67
2019-03-16T02:28:13.547Z,2.85
2019-03-16T02:30:41.998Z,3.02
2019-03-16T02:33:13.107Z,2.65
2019-03-16T02:35:40.606Z,2.67
2019-03-16T02:38:09.146Z,2.75
2019-03-16T02:40:37.546Z,2.52
2019-03-16T02:43:06.041Z,2.80
2019-03-16T02:45:34.610Z,2.65
2019-03-16T02:48:03.192Z,3.52
2019-03-16T02:50:31.643Z,3.47
2019-03-16T02:53:00.083Z,3.92
2019-03-16T02:55:28.516Z,4.05
2019-03-16T02:57:56.940Z,3.75
2019-03-16T03:00:25.375Z,4.37
2019-03-16T03:02:53.821Z,3.90
2019-03-16T03:05:22.260Z,3.50
2019-03-16T03:07:50.713Z,3.92
2019-03-16T03:10:19.133Z,3.27
2019-03-16T03:12:47.583Z,3.25
2019-03-16T03:15:16.025Z,3.10
2019-03-16T03:17:44.451Z,2.35
2019-03-16T03:20:13.063Z,3.50
2019-03-16T03:22:41.516Z,3.17
2019-03-16T03:25:10.120Z,3.08
2019-03-16T03:27:38.604Z,2.95
2019-03-16T03:30:10.559Z,2.83
2019-03-16T03:32:39.062Z,2.60
2019-03-16T03:35:09.042Z,2.90
2019-03-16T03:37:37.602Z,2.90
2019-03-16T03:40:09.015Z,2.80
2019-03-16T03:42:37.446Z,3.08
2019-03-16T03:45:08.717Z,2.87
2019-03-16T03:47:37.153Z,2.70
2019-03-16T03:50:08.770Z,3.00
2019-03-16T03:52:37.211Z,2.70
2019-03-16T03:55:07.759Z,2.60
2019-03-16T03:57:36.294Z,2.90
2019-03-16T04:00:07.807Z,2.22
2019-03-16T04:02:36.282Z,2.47
2019-03-16T04:05:05.969Z,2.60
2019-03-16T04:07:34.482Z,2.60
2019-03-16T04:10:04.853Z,2.60
2019-03-16T04:12:33.375Z,2.50
2019-03-16T04:15:01.814Z,2.62
2019-03-16T04:17:30.374Z,2.22
2019-03-16T04:19:58.799Z,3.27
2019-03-16T04:22:27.290Z,3.20
2019-03-16T04:24:55.788Z,3.02
2019-03-16T04:27:24.306Z,2.60
2019-03-16T04:29:52.751Z,3.05
2019-03-16T04:32:21.207Z,2.90
2019-03-16T04:34:49.669Z,3.33
2019-03-16T04:37:20.011Z,3.08
2019-03-16T04:39:48.430Z,3.15
2019-03-16T04:42:16.878Z,2.75
2019-03-16T04:44:45.295Z,2.30
2019-03-16T04:47:13.733Z,2.98
2019-03-16T04:49:42.143Z,2.83
2019-03-16T04:52:10.594Z,2.72
2019-03-16T04:54:39.048Z,3.02
2019-03-16T04:57:07.478Z,2.87
2019-03-16T04:59:35.890Z,2.75
2019-03-16T05:02:04.324Z,2.17
2019-03-16T05:04:42.484Z,3.22
2019-03-16T05:07:02.915Z,2.75
2019-03-16T05:09:31.364Z,2.60
2019-03-16T05:11:59.806Z,2.98
2019-03-16T05:14:28.235Z,3.22
2019-03-16T05:16:56.677Z,3.12
2019-03-16T05:19:25.109Z,3.65
2019-03-16T05:21:53.597Z,2.90
2019-03-16T05:24:22.117Z,3.00
2019-03-16T05:26:50.546Z,3.35
2019-03-16T05:29:19.018Z,4.17
2019-03-16T05:31:50.558Z,3.55
2019-03-16T05:34:17.602Z,3.22
2019-03-16T05:36:46.054Z,3.27
2019-03-16T05:39:14.489Z,3.60
2019-03-16T05:41:42.919Z,3.62
2019-03-16T05:44:11.367Z,3.00
2019-03-16T05:49:16.285Z,3.12
2019-03-16T05:51:44.723Z,2.90
2019-03-16T05:54:13.164Z,3.12
2019-03-16T05:56:41.579Z,3.20
2019-03-16T05:59:10.029Z,2.90
2019-03-16T06:01:38.466Z,2.95
2019-03-16T06:04:06.884Z,3.47
2019-03-16T06:06:35.326Z,3.45
2019-03-16T06:09:05.322Z,3.60
2019-03-16T06:11:33.772Z,3.50
2019-03-16T06:14:02.207Z,4.17
2019-03-16T06:16:30.630Z,4.45
2019-03-16T06:18:59.085Z,4.50
2019-03-16T06:21:27.566Z,4.92
2019-03-16T06:23:56.003Z,5.55
2019-03-16T06:26:24.440Z,5.87
2019-03-16T06:28:52.886Z,5.37
2019-03-16T06:31:21.291Z,5.90
2019-03-16T06:33:49.807Z,6.00
2019-03-16T06:36:18.222Z,5.30
2019-03-16T06:38:46.654Z,5.30
2019-03-16T06:41:15.071Z,5.25
2019-03-16T06:43:43.529Z,5.20
2019-03-16T06:46:11.947Z,4.90
2019-03-16T06:48:40.382Z,4.87
2019-03-16T06:51:08.976Z,4.20
2019-03-16T06:53:37.419Z,4.53
2019-03-16T06:56:05.843Z,4.28
2019-03-16T06:58:34.259Z,4.95
2019-03-16T07:01:02.688Z,5.00
2019-03-16T07:03:31.090Z,5.55
2019-03-16T07:05:59.570Z,5.17
2019-03-16T07:08:28.099Z,4.58
2019-03-16T07:10:56.506Z,4.35
2019-03-16T07:13:24.930Z,5.37
2019-03-16T07:15:53.362Z,5.35
2019-03-16T07:18:21.818Z,6.08
2019-03-16T07:20:50.519Z,5.97
2019-03-16T07:23:19.028Z,7.03
2019-03-16T07:25:47.566Z,7.72
2019-03-16T07:28:15.974Z,6.95
2019-03-16T07:30:44.406Z,6.60
2019-03-16T07:33:12.822Z,7.05
2019-03-16T07:35:41.258Z,6.15
2019-03-16T07:38:09.726Z,6.92
2019-03-16T07:40:38.188Z,7.30
2019-03-16T07:43:06.629Z,6.85
2019-03-16T07:45:35.074Z,7.17
2019-03-16T07:48:03.530Z,8.80
2019-03-16T07:50:31.975Z,8.08
2019-03-16T07:53:00.462Z,8.25
2019-03-16T07:55:28.902Z,7.22
2019-03-16T07:57:57.343Z,8.03
2019-03-16T08:00:25.789Z,6.70
2019-03-16T08:02:58.250Z,7.35
2019-03-16T08:05:26.749Z,6.92
2019-03-16T08:07:55.180Z,6.95
2019-03-16T08:10:23.595Z,7.60
2019-03-16T08:12:54.352Z,6.87
2019-03-16T08:15:23.454Z,7.25
2019-03-16T08:17:51.873Z,6.90
2019-03-16T08:20:20.336Z,6.53
2019-03-16T08:22:52.099Z,7.28
2019-03-16T08:25:20.585Z,6.85
2019-03-16T08:27:54.080Z,6.62
2019-03-16T08:30:19.212Z,8.03
2019-03-16T08:32:47.646Z,7.25
2019-03-16T08:35:16.064Z,7.35
2019-03-16T08:37:44.496Z,8.35
2019-03-16T08:40:13.010Z,7.17
2019-03-16T08:42:41.441Z,7.00
2019-03-16T08:45:10.659Z,7.47
2019-03-16T08:47:39.129Z,7.05
2019-03-16T08:50:09.206Z,7.47
2019-03-16T08:52:37.657Z,6.03
2019-03-16T08:55:07.995Z,6.08
2019-03-16T08:57:36.438Z,6.28
2019-03-16T09:00:07.976Z,7.08
2019-03-16T09:02:36.426Z,6.87
2019-03-16T09:05:06.508Z,5.67
2019-03-16T09:07:34.950Z,6.87
2019-03-16T09:10:03.539Z,6.67
2019-03-16T09:12:31.980Z,5.90
2019-03-16T09:15:00.426Z,6.45
2019-03-16T09:17:28.872Z,6.17
2019-03-16T09:19:57.398Z,7.53
2019-03-16T09:22:25.847Z,6.12
2019-03-16T09:24:54.296Z,6.42
2019-03-16T09:27:31.263Z,7.78
2019-03-16T09:29:55.150Z,7.33
2019-03-16T09:32:23.596Z,7.85
2019-03-16T09:34:52.090Z,8.53
2019-03-16T09:37:20.531Z,6.85
2019-03-16T09:39:48.999Z,7.37
2019-03-16T09:42:17.438Z,7.05
2019-03-16T09:44:45.891Z,7.35
2019-03-16T09:47:14.383Z,6.65
2019-03-16T09:49:42.833Z,7.15
2019-03-16T09:52:11.282Z,7.87
2019-03-16T09:54:39.731Z,8.20
2019-03-16T09:57:08.167Z,7.83
2019-03-16T09:59:36.587Z,7.95
2019-03-16T10:02:05.197Z,6.67
2019-03-16T10:04:33.626Z,7.20
2019-03-16T10:07:04.966Z,6.90
2019-03-16T10:09:33.386Z,6.80
2019-03-16T10:12:01.839Z,8.20
2019-03-16T10:14:30.274Z,8.15
2019-03-16T10:16:58.833Z,6.83
2019-03-16T10:19:27.446Z,6.62
2019-03-16T10:21:55.892Z,6.35
2019-03-16T10:24:24.342Z,6.28
2019-03-16T10:26:52.775Z,5.72
2019-03-16T10:29:21.224Z,6.87
2019-03-16T10:31:49.702Z,6.15
2019-03-16T10:34:18.147Z,6.20
2019-03-16T10:36:46.582Z,6.00
2019-03-16T10:39:15.018Z,5.50
2019-03-16T10:41:43.459Z,5.60
2019-03-16T10:44:11.894Z,5.72
2019-03-16T10:46:40.323Z,5.95
2019-03-16T10:49:08.735Z,6.47
2019-03-16T10:51:37.168Z,5.95
2019-03-16T10:54:06.036Z,5.45
2019-03-16T10:56:34.550Z,5.92
2019-03-16T10:59:02.966Z,5.72
2019-03-16T11:01:31.401Z,6.67
2019-03-16T11:03:59.843Z,5.92
2019-03-16T11:06:28.272Z,5.83
2019-03-16T11:08:56.719Z,5.90
2019-03-16T11:11:25.166Z,5.85
2019-03-16T11:13:53.604Z,6.40
2019-03-16T11:16:22.017Z,6.00
2019-03-16T11:18:50.466Z,7.12
2019-03-16T11:21:18.889Z,5.67
2019-03-16T11:23:47.334Z,6.30
2019-03-16T11:26:15.778Z,6.30
2019-03-16T11:28:44.191Z,5.60
2019-03-16T11:31:12.639Z,6.17
2019-03-16T11:33:41.074Z,6.80
2019-03-16T11:36:09.517Z,6.03
2019-03-16T11:38:37.972Z,6.55
2019-03-16T11:41:06.420Z,5.87
2019-03-16T11:43:34.845Z,6.20
2019-03-16T11:46:03.293Z,6.65
2019-03-16T11:48:31.710Z,5.92
2019-03-16T11:51:00.141Z,6.28
2019-03-16T11:53:28.590Z,6.03
2019-03-16T11:55:57.033Z,5.83
2019-03-16T11:58:25.559Z,5.62
2019-03-16T12:00:53.974Z,5.62
2019-03-16T12:03:22.406Z,4.72
2019-03-16T12:05:50.828Z,4.65
2019-03-16T12:08:19.282Z,6.10
2019-03-16T12:10:47.716Z,4.85
2019-03-16T12:13:17.878Z,5.10
2019-03-16T12:15:46.351Z,5.08
2019-03-16T12:18:14.854Z,5.15
2019-03-16T12:20:43.295Z,5.10
2019-03-16T12:23:11.727Z,5.50
2019-03-16T12:25:40.170Z,4.72
2019-03-16T12:28:08.597Z,4.92
2019-03-16T12:30:37.010Z,5.60
2019-03-16T12:33:05.464Z,5.45
2019-03-16T12:35:33.913Z,5.92
2019-03-16T12:38:02.360Z,4.45
2019-03-16T12:40:30.809Z,4.53
2019-03-16T12:42:59.247Z,5.00
2019-03-16T12:45:27.686Z,5.28
2019-03-16T12:47:56.236Z,5.50
2019-03-16T12:50:24.889Z,6.62
2019-03-16T12:52:56.489Z,6.35
2019-03-16T12:55:24.916Z,6.47
2019-03-16T12:57:53.342Z,5.42
2019-03-16T13:00:23.327Z,5.50
2019-03-16T13:02:51.905Z,5.17
2019-03-16T13:05:20.354Z,6.10
2019-03-16T13:07:48.797Z,5.97
2019-03-16T13:10:18.351Z,4.90
2019-03-16T13:12:46.880Z,5.55
2019-03-16T13:15:15.314Z,4.92
2019-03-16T13:17:43.733Z,5.12
2019-03-16T13:20:15.058Z,4.67
2019-03-16T13:22:45.137Z,4.95
2019-03-16T13:25:13.940Z,4.75
2019-03-16T13:27:42.373Z,4.42
2019-03-16T13:30:13.628Z,4.75
2019-03-16T13:32:42.114Z,3.77
2019-03-16T13:35:10.774Z,4.50
2019-03-16T13:37:39.528Z,4.60
2019-03-16T13:40:11.114Z,4.42
2019-03-16T13:42:39.569Z,5.33
2019-03-16T13:45:09.374Z,5.53
2019-03-16T13:47:37.818Z,4.80
2019-03-16T13:50:09.669Z,4.53
2019-03-16T13:52:38.369Z,5.50
2019-03-16T13:55:07.428Z,5.08
2019-03-16T13:57:35.868Z,5.08
2019-03-16T14:00:12.258Z,5.67
2019-03-16T14:02:38.048Z,5.05
2019-03-16T14:05:06.811Z,5.10
2019-03-16T14:07:35.520Z,6.05
2019-03-16T14:10:05.611Z,5.62
2019-03-16T14:12:34.052Z,5.65
2019-03-16T14:15:02.482Z,5.30
2019-03-16T14:17:31.298Z,5.17
2019-03-16T14:19:59.734Z,6.20
2019-03-16T14:22:28.150Z,6.62
2019-03-16T14:24:56.598Z,7.22
2019-03-16T14:27:25.018Z,5.97
2019-03-16T14:29:53.456Z,6.03
2019-03-16T14:32:22.143Z,6.28
2019-03-16T14:34:50.941Z,6.55
2019-03-16T14:37:19.747Z,5.15
2019-03-16T14:39:48.244Z,4.85
2019-03-16T14:42:16.700Z,5.45
2019-03-16T14:44:45.150Z,6.10
2019-03-16T14:47:13.599Z,4.67
2019-03-16T14:49:42.230Z,5.50
2019-03-16T14:52:11.031Z,5.30
2019-03-16T14:54:39.477Z,5.05
2019-03-16T14:57:07.922Z,5.33
2019-03-16T14:59:36.342Z,5.17
2019-03-16T15:02:04.778Z,4.03
2019-03-16T15:04:33.211Z,4.62
2019-03-16T15:07:01.666Z,4.87
2019-03-16T15:09:30.108Z,4.75
2019-03-16T15:11:58.532Z,4.35
2019-03-16T15:14:26.975Z,4.87
2019-03-16T15:16:55.428Z,5.05
2019-03-16T15:19:23.870Z,4.70
2019-03-16T15:21:52.318Z,6.08
2019-03-16T15:24:20.736Z,5.95
2019-03-16T15:26:49.186Z,6.17
2019-03-16T15:29:17.598Z,6.50
2019-03-16T15:31:46.035Z,5.47
2019-03-16T15:34:14.474Z,5.78
2019-03-16T15:36:42.921Z,6.30
2019-03-16T15:39:11.433Z,6.55
2019-03-16T15:41:39.871Z,6.58
2019-03-16T15:44:08.319Z,7.22
2019-03-16T15:46:36.735Z,5.65
2019-03-16T15:49:05.168Z,6.00
2019-03-16T15:51:33.588Z,5.55
2019-03-16T15:54:02.044Z,5.72
2019-03-16T15:56:30.495Z,5.62
2019-03-16T15:58:58.935Z,6.25
2019-03-16T16:01:27.363Z,5.62
2019-03-16T16:03:55.790Z,5.17
2019-03-16T16:06:24.241Z,5.35
2019-03-16T16:08:52.695Z,5.53
2019-03-16T16:11:21.129Z,5.15
2019-03-16T16:13:49.578Z,5.45
2019-03-16T16:16:17.991Z,5.33
2019-03-16T16:18:46.431Z,5.33
2019-03-16T16:21:14.874Z,5.37
2019-03-16T16:23:43.298Z,5.53
2019-03-16T16:26:11.737Z,5.53
2019-03-16T16:28:40.192Z,6.40
2019-03-16T16:31:16.234Z,5.30
2019-03-16T16:33:38.780Z,6.95
2019-03-16T16:36:08.549Z,6.03
2019-03-16T16:38:37.248Z,6.08
2019-03-16T16:41:05.702Z,6.05
2019-03-16T16:43:34.151Z,5.58
2019-03-16T16:46:02.576Z,5.35
2019-03-16T16:48:31.007Z,6.30
2019-03-16T16:50:59.469Z,6.05
2019-03-16T16:53:27.890Z,6.03
2019-03-16T16:55:56.316Z,5.87
2019-03-16T16:58:24.779Z,6.20
2019-03-16T17:00:53.223Z,7.08
2019-03-16T17:03:21.732Z,5.90
2019-03-16T17:05:50.181Z,5.75
2019-03-16T17:08:18.611Z,5.92
2019-03-16T17:10:47.049Z,6.03
2019-03-16T17:13:15.494Z,6.22
2019-03-16T17:15:43.934Z,5.78
2019-03-16T17:18:12.374Z,5.65
2019-03-16T17:20:40.810Z,5.33
2019-03-16T17:23:09.255Z,6.62
2019-03-16T17:25:37.683Z,5.97
2019-03-16T17:28:06.138Z,5.62
2019-03-16T17:30:34.937Z,5.05
2019-03-16T17:33:03.363Z,5.45
2019-03-16T17:35:31.806Z,5.85
2019-03-16T17:38:00.274Z,5.58
2019-03-16T17:40:28.811Z,5.47
2019-03-16T17:42:57.462Z,5.10
2019-03-16T17:45:25.882Z,5.55
2019-03-16T17:47:54.307Z,5.58
2019-03-16T17:50:22.744Z,5.45
2019-03-16T17:52:51.170Z,4.75
2019-03-16T17:55:19.765Z,5.00
2019-03-16T17:57:48.225Z,5.20
2019-03-16T18:00:18.648Z,6.08
2019-03-16T18:02:51.735Z,4.72
2019-03-16T18:05:17.283Z,6.05
2019-03-16T18:07:45.744Z,5.42
2019-03-16T18:10:15.698Z,6.28
2019-03-16T18:12:44.399Z,6.03
2019-03-16T18:15:15.095Z,5.67
2019-03-16T18:17:43.536Z,5.65
2019-03-16T18:20:17.055Z,4.58
2019-03-16T18:22:44.446Z,5.10
2019-03-16T18:25:13.626Z,4.97
2019-03-16T18:27:42.047Z,5.53
2019-03-16T18:30:13.575Z,5.65
2019-03-16T18:32:42.026Z,5.58
2019-03-16T18:35:10.446Z,5.67
2019-03-16T18:37:38.916Z,6.10
2019-03-16T18:40:10.684Z,5.92
2019-03-16T18:42:39.116Z,6.12
2019-03-16T18:45:10.618Z,5.53
2019-03-16T18:47:39.067Z,5.40
2019-03-16T18:50:08.027Z,5.60
2019-03-16T18:52:36.473Z,5.12
2019-03-16T18:55:08.540Z,5.67
2019-03-16T18:57:36.982Z,5.35
2019-03-16T19:00:08.503Z,5.33
2019-03-16T19:02:37.235Z,6.03
2019-03-16T19:05:08.068Z,5.90
2019-03-16T19:07:36.482Z,5.78
2019-03-16T19:10:08.187Z,5.83
2019-03-16T19:12:36.686Z,4.95
2019-03-16T19:15:08.813Z,6.03
2019-03-16T19:17:37.332Z,5.58
2019-03-16T19:20:09.314Z,5.67
2019-03-16T19:22:37.754Z,5.87
2019-03-16T19:25:12.076Z,5.30
2019-03-16T19:27:40.523Z,5.53
2019-03-16T19:30:12.031Z,5.47
2019-03-16T19:32:40.501Z,4.72
2019-03-16T19:35:09.060Z,6.00
2019-03-16T19:37:37.495Z,5.30
2019-03-16T19:40:09.004Z,6.30
2019-03-16T19:42:37.430Z,5.78
2019-03-16T19:45:08.335Z,5.33
2019-03-16T19:47:36.763Z,5.28
2019-03-16T19:50:08.636Z,6.47
2019-03-16T19:52:37.065Z,6.40
2019-03-16T19:55:07.522Z,5.97
2019-03-16T19:57:36.020Z,5.10
2019-03-16T20:00:06.957Z,6.03
2019-03-16T20:02:46.929Z,6.42
2019-03-16T20:05:08.205Z,5.78
2019-03-16T20:07:36.677Z,6.90
2019-03-16T20:10:08.014Z,5.50
2019-03-16T20:12:36.525Z,5.67
2019-03-16T20:15:08.100Z,5.42
2019-03-16T20:17:36.519Z,4.60
2019-03-16T20:20:08.684Z,5.60
2019-03-16T20:22:37.410Z,5.20
2019-03-16T20:25:06.599Z,5.10
2019-03-16T20:27:35.038Z,5.58
2019-03-16T20:30:05.110Z,5.87
2019-03-16T20:32:33.572Z,4.22
2019-03-16T20:35:02.084Z,5.33
2019-03-16T20:37:30.503Z,5.05
2019-03-16T20:39:58.943Z,4.58
2019-03-16T20:42:27.386Z,5.50
2019-03-16T20:44:55.836Z,4.72
2019-03-16T20:47:24.262Z,4.40
2019-03-16T20:49:52.714Z,4.97
2019-03-16T20:52:21.167Z,6.37
2019-03-16T20:54:49.584Z,4.33
2019-03-16T20:57:18.031Z,4.72
2019-03-16T20:59:46.472Z,5.45
2019-03-16T21:02:14.925Z,4.35
2019-03-16T21:04:43.411Z,4.45
2019-03-16T21:07:11.873Z,4.95
2019-03-16T21:09:40.287Z,4.37
2019-03-16T21:12:08.738Z,4.50
2019-03-16T21:14:37.172Z,5.65
2019-03-16T21:17:05.619Z,4.50
2019-03-16T21:19:34.073Z,5.22
2019-03-16T21:22:02.490Z,4.45
2019-03-16T21:24:30.936Z,6.22
2019-03-16T21:26:59.367Z,5.87
2019-03-16T21:29:27.798Z,5.58
2019-03-16T21:31:56.234Z,4.78
2019-03-16T21:34:24.683Z,5.17
2019-03-16T21:36:53.093Z,6.08
2019-03-16T21:39:21.563Z,4.62
2019-03-16T21:41:50.020Z,5.33
2019-03-16T21:44:18.474Z,5.42
2019-03-16T21:46:46.927Z,4.55
2019-03-16T21:49:15.372Z,4.70
2019-03-16T21:51:43.829Z,5.05
2019-03-16T21:54:12.270Z,5.47
2019-03-16T21:56:40.723Z,5.37
2019-03-16T21:59:09.152Z,5.72
2019-03-16T22:01:37.595Z,6.20
2019-03-16T22:04:06.060Z,4.55
2019-03-16T22:06:34.501Z,4.50
2019-03-16T22:09:02.938Z,4.03
2019-03-16T22:11:31.382Z,4.40
2019-03-16T22:13:59.824Z,4.37
2019-03-16T22:16:28.278Z,3.90
2019-03-16T22:18:56.736Z,4.92
2019-03-16T22:21:25.185Z,4.33
2019-03-16T22:23:53.599Z,4.62
2019-03-16T22:26:22.037Z,4.75
2019-03-16T22:28:50.538Z,4.33
2019-03-16T22:31:18.986Z,4.15
2019-03-16T22:33:54.433Z,4.87
2019-03-16T22:36:17.567Z,4.20
2019-03-16T22:38:46.015Z,4.70
2019-03-16T22:41:14.467Z,4.58
2019-03-16T22:43:42.889Z,4.75
2019-03-16T22:46:11.309Z,4.80
2019-03-16T22:48:39.739Z,5.03
2019-03-16T22:51:08.187Z,4.28
2019-03-16T22:53:36.607Z,4.67
2019-03-16T22:56:05.081Z,4.50
2019-03-16T22:58:33.566Z,4.65
2019-03-16T23:01:01.995Z,4.40
2019-03-16T23:03:30.421Z,4.15
2019-03-16T23:05:58.885Z,5.30
2019-03-16T23:08:27.306Z,4.05
2019-03-16T23:10:55.729Z,4.53
2019-03-16T23:13:24.162Z,4.78
2019-03-16T23:15:52.615Z,4.45
2019-03-16T23:18:21.062Z,4.20
2019-03-16T23:20:49.507Z,3.62
2019-03-16T23:23:17.998Z,4.17
2019-03-16T23:25:46.446Z,3.65
2019-03-16T23:28:14.890Z,3.80
2019-03-16T23:30:43.330Z,4.70
2019-03-16T23:33:11.747Z,3.98
2019-03-16T23:35:40.175Z,4.33
2019-03-16T23:38:08.590Z,3.85
2019-03-16T23:40:37.022Z,4.55
2019-03-16T23:43:05.786Z,4.35
2019-03-16T23:45:34.242Z,4.10
2019-03-16T23:48:02.686Z,3.35
2019-03-16T23:50:31.131Z,3.92
2019-03-16T23:52:59.934Z,4.28
2019-03-16T23:55:28.390Z,3.72
2019-03-16T23:57:56.827Z,4.40
